createdAt,value
2023-03-28T00:00:41.443Z,77191.56
2023-03-28T00:03:09.277Z,77183.41
2023-03-28T00:05:41.242Z,77171.19
2023-03-28T00:08:11.923Z,77179.34
2023-03-28T00:10:39.676Z,77171.19
2023-03-28T00:13:07.849Z,77171.19
2023-03-28T00:15:38.100Z,77179.34
2023-03-28T00:18:06.611Z,77185.47
2023-03-28T00:20:40.221Z,77179.34
2023-03-28T00:23:09.560Z,77171.19
2023-03-28T00:25:40.135Z,77183.41
2023-03-28T00:28:07.993Z,77189.53
2023-03-28T00:30:35.761Z,77195.66
2023-03-28T00:33:05.154Z,77191.56
2023-03-28T00:35:33.738Z,77199.72
2023-03-28T00:38:03.430Z,77195.66
2023-03-28T00:40:37.051Z,77199.72
2023-03-28T00:43:05.284Z,77195.66
2023-03-28T00:45:33.906Z,77185.47
2023-03-28T00:48:06.778Z,77199.72
2023-03-28T00:50:48.727Z,77199.72
2023-03-28T00:53:21.043Z,77203.81
2023-03-28T00:55:52.684Z,77205.84
2023-03-28T00:58:23.935Z,77216.03
2023-03-28T01:00:52.109Z,77211.97
2023-03-28T01:03:22.577Z,77214.00
2023-03-28T01:05:51.160Z,77226.25
2023-03-28T01:08:23.115Z,77216.03
2023-03-28T01:10:51.373Z,77228.28
2023-03-28T01:13:22.412Z,77234.41
2023-03-28T01:15:51.335Z,77236.44
2023-03-28T01:18:22.760Z,77234.41
2023-03-28T01:21:16.878Z,77240.53
2023-03-28T01:24:19.481Z,77216.03
2023-03-28T01:26:55.491Z,77214.00
2023-03-28T01:29:45.631Z,77228.28
2023-03-28T01:32:52.304Z,77230.31
2023-03-28T01:35:51.472Z,77238.47
2023-03-28T01:38:24.430Z,77236.44
2023-03-28T01:41:01.862Z,77236.44
2023-03-28T01:43:41.244Z,77242.56
2023-03-28T01:46:16.343Z,77238.47
2023-03-28T01:48:57.584Z,77248.69
2023-03-28T01:51:36.326Z,77265.00
2023-03-28T01:54:16.103Z,77269.06
2023-03-28T01:56:51.025Z,77281.31
2023-03-28T01:59:26.889Z,77285.38
2023-03-28T02:02:02.744Z,77301.72
2023-03-28T02:04:33.740Z,77303.75
2023-03-28T02:07:03.836Z,77311.91
2023-03-28T02:09:37.142Z,77326.19
2023-03-28T02:12:11.073Z,77330.25
2023-03-28T02:14:42.252Z,77332.31
2023-03-28T02:17:16.648Z,77340.47
2023-03-28T02:19:50.271Z,77338.41
2023-03-28T02:22:23.877Z,77338.41
2023-03-28T02:24:53.047Z,77342.50
2023-03-28T02:27:22.646Z,77348.63
2023-03-28T02:29:54.376Z,77348.63
2023-03-28T02:32:23.853Z,77354.72
2023-03-28T02:34:55.251Z,77366.97
2023-03-28T02:37:37.844Z,77362.88
2023-03-28T02:40:31.445Z,77371.06
2023-03-28T02:43:10.726Z,77375.13
2023-03-28T02:45:58.519Z,77375.13
2023-03-28T02:48:37.779Z,77366.97
2023-03-28T02:51:19.590Z,77364.94
2023-03-28T02:53:57.372Z,77358.81
2023-03-28T02:56:37.076Z,77350.66
2023-03-28T02:59:09.521Z,77358.81
2023-03-28T03:01:40.880Z,77346.56
2023-03-28T03:04:08.923Z,77346.56
2023-03-28T03:06:37.031Z,77346.56
2023-03-28T03:09:05.820Z,77330.25
2023-03-28T03:11:34.964Z,77342.50
2023-03-28T03:14:02.759Z,77346.56
2023-03-28T03:16:30.612Z,77334.34
2023-03-28T03:18:58.418Z,77334.34
2023-03-28T03:21:26.276Z,77334.34
2023-03-28T03:23:54.050Z,77334.34
2023-03-28T03:26:22.543Z,77334.34
2023-03-28T03:28:51.622Z,77330.25
2023-03-28T03:31:21.530Z,77336.38
2023-03-28T03:33:49.405Z,77336.38
2023-03-28T03:36:17.183Z,77318.03
2023-03-28T03:38:44.926Z,77324.13
2023-03-28T03:41:12.749Z,77330.25
2023-03-28T03:43:41.203Z,77328.22
2023-03-28T03:46:10.444Z,77334.34
2023-03-28T03:48:38.413Z,77336.38
2023-03-28T03:51:17.497Z,77342.50
2023-03-28T03:53:46.697Z,77348.63
2023-03-28T03:56:14.557Z,77352.69
2023-03-28T03:58:42.374Z,77358.81
2023-03-28T04:01:13.999Z,77346.56
2023-03-28T04:03:42.392Z,77346.56
2023-03-28T04:06:10.731Z,77358.81
2023-03-28T04:08:38.474Z,77344.53
2023-03-28T04:11:07.862Z,77350.66
2023-03-28T04:13:35.639Z,77354.72
2023-03-28T04:16:03.789Z,77346.56
2023-03-28T04:18:35.156Z,77354.72
2023-03-28T04:21:03.795Z,77342.50
2023-03-28T04:23:31.543Z,77342.50
2023-03-28T04:25:59.505Z,77334.34
2023-03-28T04:28:27.801Z,77334.34
2023-03-28T04:30:58.299Z,77338.41
2023-03-28T04:33:26.154Z,77338.41
2023-03-28T04:36:00.459Z,77350.66
2023-03-28T04:38:29.775Z,77346.56
2023-03-28T04:40:58.672Z,77344.53
2023-03-28T04:43:26.926Z,77350.66
2023-03-28T04:45:55.288Z,77344.53
2023-03-28T04:48:23.920Z,77350.66
2023-03-28T04:50:51.926Z,77346.56
2023-03-28T04:53:21.551Z,77346.56
2023-03-28T04:55:50.244Z,77342.50
2023-03-28T04:58:18.718Z,77332.31
2023-03-28T05:00:47.120Z,77330.25
2023-03-28T05:03:18.344Z,77322.09
2023-03-28T05:05:46.698Z,77318.03
2023-03-28T05:08:16.269Z,77328.22
2023-03-28T05:10:46.376Z,77334.34
2023-03-28T05:13:15.056Z,77330.25
2023-03-28T05:15:43.068Z,77320.06
2023-03-28T05:18:11.566Z,77326.19
2023-03-28T05:20:39.345Z,77328.22
2023-03-28T05:23:07.392Z,77320.06
2023-03-28T05:25:35.792Z,77318.03
2023-03-28T05:28:05.133Z,77318.03
2023-03-28T05:30:32.915Z,77324.13
2023-03-28T05:33:00.872Z,77315.97
2023-03-28T05:35:28.754Z,77324.13
2023-03-28T05:37:56.493Z,77322.09
2023-03-28T05:40:24.308Z,77328.22
2023-03-28T05:42:52.241Z,77324.13
2023-03-28T05:45:22.579Z,77324.13
2023-03-28T05:47:51.770Z,77332.31
2023-03-28T05:50:19.535Z,77322.09
2023-03-28T05:52:47.281Z,77322.09
2023-03-28T05:55:15.139Z,77318.03
2023-03-28T05:57:44.119Z,77318.03
2023-03-28T06:00:13.819Z,77330.25
2023-03-28T06:02:43.427Z,77320.06
2023-03-28T06:05:11.553Z,77313.94
2023-03-28T06:07:42.936Z,77318.03
2023-03-28T06:10:12.559Z,77315.97
2023-03-28T06:12:40.813Z,77322.09
2023-03-28T06:15:10.039Z,77301.72
2023-03-28T06:17:38.264Z,77301.72
2023-03-28T06:20:09.836Z,77313.94
2023-03-28T06:22:37.911Z,77313.94
2023-03-28T06:25:06.840Z,77301.72
2023-03-28T06:27:35.589Z,77297.63
2023-03-28T06:30:04.606Z,77289.47
2023-03-28T06:32:32.466Z,77281.31
2023-03-28T06:35:00.252Z,77265.00
2023-03-28T06:37:29.397Z,77291.50
2023-03-28T06:39:57.589Z,77285.38
2023-03-28T06:42:25.356Z,77277.22
2023-03-28T06:44:53.099Z,77289.47
2023-03-28T06:47:21.085Z,77277.22
2023-03-28T06:49:48.847Z,77281.31
2023-03-28T06:52:16.790Z,77281.31
2023-03-28T06:54:48.383Z,77260.91
2023-03-28T06:57:16.502Z,77232.38
2023-03-28T06:59:44.409Z,77244.59
2023-03-28T07:02:12.859Z,77236.44
2023-03-28T07:04:40.949Z,77234.41
2023-03-28T07:07:09.551Z,77232.38
2023-03-28T07:09:37.854Z,77232.38
2023-03-28T07:12:07.641Z,77220.13
2023-03-28T07:14:35.718Z,77224.22
2023-03-28T07:17:03.532Z,77224.22
2023-03-28T07:19:31.372Z,77228.28
2023-03-28T07:21:59.214Z,77240.53
2023-03-28T07:24:27.331Z,77250.72
2023-03-28T07:27:11.770Z,77262.97
2023-03-28T07:29:44.419Z,77293.53
2023-03-28T07:32:12.268Z,77307.81
2023-03-28T07:34:40.028Z,77320.06
2023-03-28T07:37:08.964Z,77313.94
2023-03-28T07:39:39.891Z,77326.19
2023-03-28T07:42:10.717Z,77307.81
2023-03-28T07:44:40.318Z,77305.78
2023-03-28T07:47:12.103Z,77295.59
2023-03-28T07:49:41.122Z,77301.72
2023-03-28T07:52:09.259Z,77285.38
2023-03-28T07:54:37.370Z,77293.53
2023-03-28T07:57:05.795Z,77289.47
2023-03-28T07:59:33.894Z,77281.31
2023-03-28T08:02:01.703Z,77269.06
2023-03-28T08:04:31.231Z,77248.69
2023-03-28T08:07:00.244Z,77244.59
2023-03-28T08:09:28.094Z,77242.56
2023-03-28T08:11:55.953Z,77224.22
2023-03-28T08:14:23.752Z,77218.09
2023-03-28T08:16:52.092Z,77214.00
2023-03-28T08:19:19.889Z,77205.84
2023-03-28T08:21:49.082Z,77201.78
2023-03-28T08:24:25.346Z,77171.19
2023-03-28T08:27:01.657Z,77193.63
2023-03-28T08:29:29.418Z,77179.34
2023-03-28T08:31:57.602Z,77146.72
2023-03-28T08:34:25.885Z,77128.34
2023-03-28T08:36:55.048Z,77138.56
2023-03-28T08:39:23.371Z,77128.34
2023-03-28T08:42:13.945Z,77095.72
2023-03-28T08:45:05.493Z,77079.41
2023-03-28T08:47:36.427Z,77056.97
2023-03-28T08:50:13.340Z,77040.66
2023-03-28T08:52:44.547Z,77048.81
2023-03-28T08:55:28.025Z,77075.31
2023-03-28T08:57:56.916Z,77079.41
2023-03-28T09:00:28.456Z,77085.53
2023-03-28T09:02:57.038Z,77040.66
2023-03-28T09:05:35.068Z,77052.91
2023-03-28T09:08:19.797Z,77073.28
2023-03-28T09:10:54.196Z,77063.09
2023-03-28T09:13:34.410Z,77042.69
2023-03-28T09:16:16.769Z,77032.50
2023-03-28T09:19:10.506Z,77024.34
2023-03-28T09:21:57.541Z,77016.19
2023-03-28T09:24:57.388Z,77006.00
2023-03-28T09:27:31.089Z,77018.22
2023-03-28T09:30:18.822Z,77044.75
2023-03-28T09:32:50.510Z,77065.13
2023-03-28T09:35:21.312Z,77054.94
2023-03-28T09:37:52.847Z,77052.91
2023-03-28T09:40:25.001Z,77110.00
2023-03-28T09:43:02.917Z,77146.72
2023-03-28T09:45:41.817Z,77175.25
2023-03-28T09:48:19.152Z,77187.50
2023-03-28T09:50:47.845Z,77171.19
2023-03-28T09:53:22.842Z,77156.91
2023-03-28T09:56:03.345Z,77142.63
2023-03-28T09:58:49.833Z,77118.16
2023-03-28T10:01:33.463Z,77110.00
2023-03-28T10:04:02.033Z,77089.59
2023-03-28T10:06:32.633Z,77063.09
2023-03-28T10:09:18.161Z,77032.50
2023-03-28T10:11:52.053Z,76985.59
2023-03-28T10:14:34.466Z,76991.72
2023-03-28T10:17:04.779Z,77018.22
2023-03-28T10:19:35.914Z,77132.44
2023-03-28T10:22:08.358Z,77207.88
2023-03-28T10:24:37.796Z,77211.97
2023-03-28T10:27:18.052Z,77163.03
2023-03-28T10:29:47.836Z,77114.06
2023-03-28T10:32:25.983Z,77044.75
2023-03-28T10:35:02.527Z,76967.25
2023-03-28T10:37:32.634Z,76930.53
2023-03-28T10:40:04.742Z,76955.00
2023-03-28T10:42:42.955Z,77044.75
2023-03-28T10:45:23.774Z,77095.72
2023-03-28T10:47:54.737Z,77105.91
2023-03-28T10:50:27.955Z,77105.91
2023-03-28T10:53:21.928Z,77112.03
2023-03-28T10:56:01.604Z,77122.22
2023-03-28T10:58:36.056Z,77105.91
2023-03-28T11:01:11.344Z,77103.88
2023-03-28T11:03:57.833Z,77048.81
2023-03-28T11:06:32.620Z,77016.19
2023-03-28T11:09:08.797Z,76957.03
2023-03-28T11:11:51.093Z,76926.47
2023-03-28T11:14:33.490Z,76918.31
2023-03-28T11:17:09.372Z,76957.03
2023-03-28T11:20:17.268Z,77028.41
2023-03-28T11:23:04.964Z,77120.19
2023-03-28T11:25:44.553Z,77354.72
2023-03-28T11:28:21.123Z,77450.59
2023-03-28T11:30:55.927Z,77466.91
2023-03-28T11:33:28.784Z,77454.69
2023-03-28T11:36:00.418Z,77420.00
2023-03-28T11:38:33.450Z,77385.31
2023-03-28T11:41:05.709Z,77334.34
2023-03-28T11:43:41.764Z,77295.59
2023-03-28T11:46:17.945Z,77297.63
2023-03-28T11:48:50.231Z,77313.94
2023-03-28T11:51:21.726Z,77338.41
2023-03-28T11:53:55.244Z,77458.75
2023-03-28T11:56:42.891Z,77468.94
2023-03-28T11:59:16.494Z,77471.00
2023-03-28T12:01:51.499Z,77430.19
2023-03-28T12:04:23.508Z,77407.75
2023-03-28T12:07:08.110Z,77334.34
2023-03-28T12:09:42.711Z,77240.53
2023-03-28T12:12:14.302Z,77187.50
2023-03-28T12:14:51.036Z,77138.56
2023-03-28T12:17:24.992Z,77158.94
2023-03-28T12:19:53.883Z,77154.88
2023-03-28T12:22:27.277Z,77260.91
2023-03-28T12:25:01.233Z,77313.94
2023-03-28T12:27:42.929Z,77305.78
2023-03-28T12:30:22.467Z,77309.88
2023-03-28T12:33:03.366Z,77309.88
2023-03-28T12:35:38.629Z,77309.88
2023-03-28T12:38:24.470Z,77291.50
2023-03-28T12:40:55.811Z,77271.13
2023-03-28T12:43:28.706Z,77197.69
2023-03-28T12:46:01.497Z,77130.41
2023-03-28T12:48:35.969Z,77067.16
2023-03-28T12:51:13.848Z,77012.09
2023-03-28T12:53:46.831Z,76979.47
2023-03-28T12:56:16.630Z,76918.31
2023-03-28T12:58:46.683Z,76899.94
2023-03-28T13:01:33.495Z,76924.41
2023-03-28T13:04:11.678Z,76959.09
2023-03-28T13:06:49.317Z,76999.88
2023-03-28T13:09:25.154Z,77150.78
2023-03-28T13:11:59.058Z,77175.25
2023-03-28T13:14:57.934Z,77148.75
2023-03-28T13:17:26.942Z,77105.91
2023-03-28T13:20:07.141Z,77085.53
2023-03-28T13:22:40.352Z,77032.50
2023-03-28T13:25:33.148Z,76979.47
2023-03-28T13:28:02.438Z,76967.25
2023-03-28T13:30:32.200Z,76975.41
2023-03-28T13:33:03.485Z,77020.25
2023-03-28T13:35:46.679Z,77107.97
2023-03-28T13:38:16.718Z,77207.88
2023-03-28T13:40:54.463Z,77242.56
2023-03-28T13:43:27.106Z,77224.22
2023-03-28T13:45:58.701Z,77167.09
2023-03-28T13:48:33.698Z,77122.22
2023-03-28T13:51:08.189Z,77093.69
2023-03-28T13:53:46.941Z,77067.16
2023-03-28T13:56:24.275Z,77024.34
2023-03-28T13:58:53.753Z,76995.78
2023-03-28T14:01:25.361Z,77030.47
2023-03-28T14:03:54.296Z,77052.91
2023-03-28T14:06:26.693Z,77130.41
2023-03-28T14:08:56.574Z,77177.31
2023-03-28T14:11:30.424Z,77216.03
2023-03-28T14:14:08.825Z,77195.66
2023-03-28T14:16:38.678Z,77179.34
2023-03-28T14:19:07.510Z,77183.41
2023-03-28T14:21:36.684Z,77187.50
2023-03-28T14:24:07.910Z,77211.97
2023-03-28T14:26:38.010Z,77207.88
2023-03-28T14:29:08.112Z,77260.91
2023-03-28T14:31:38.478Z,77305.78
2023-03-28T14:34:16.617Z,77262.97
2023-03-28T14:37:00.737Z,77232.38
2023-03-28T14:39:30.299Z,77207.88
2023-03-28T14:42:00.681Z,77163.03
2023-03-28T14:44:30.275Z,77122.22
2023-03-28T14:47:00.163Z,77085.53
2023-03-28T14:49:28.792Z,77036.59
2023-03-28T14:51:59.897Z,77006.00
2023-03-28T14:54:32.732Z,76961.13
2023-03-28T14:57:01.685Z,76928.50
2023-03-28T14:59:36.821Z,76895.88
2023-03-28T15:02:06.810Z,76899.94
2023-03-28T15:04:35.974Z,76934.63
2023-03-28T15:07:08.978Z,76950.94
2023-03-28T15:09:36.978Z,76942.78
2023-03-28T15:12:09.138Z,76930.53
2023-03-28T15:14:42.646Z,76926.47
2023-03-28T15:17:17.091Z,76938.69
2023-03-28T15:19:46.767Z,76948.88
2023-03-28T15:22:22.936Z,76977.44
2023-03-28T15:24:51.628Z,77020.25
2023-03-28T15:27:27.007Z,77024.34
2023-03-28T15:29:55.854Z,77026.38
2023-03-28T15:32:24.083Z,77001.91
2023-03-28T15:34:57.815Z,77008.03
2023-03-28T15:37:28.063Z,76995.78
2023-03-28T15:40:12.852Z,76991.72
2023-03-28T15:42:41.483Z,76948.88
2023-03-28T15:45:40.962Z,76910.16
2023-03-28T15:48:16.266Z,76873.44
2023-03-28T15:50:49.242Z,76877.50
2023-03-28T15:53:19.421Z,76848.97
2023-03-28T15:55:49.854Z,76863.25
2023-03-28T15:58:20.709Z,76851.00
2023-03-28T16:00:50.071Z,76869.34
2023-03-28T16:03:34.212Z,76901.97
2023-03-28T16:06:23.300Z,76893.81
2023-03-28T16:09:15.558Z,76893.81
2023-03-28T16:11:43.886Z,76893.81
2023-03-28T16:14:17.202Z,76918.31
2023-03-28T16:16:45.467Z,76922.38
2023-03-28T16:19:20.187Z,76930.53
2023-03-28T16:21:48.698Z,76912.19
2023-03-28T16:24:19.696Z,76901.97
2023-03-28T16:26:47.735Z,76885.66
2023-03-28T16:29:15.631Z,76893.81
2023-03-28T16:31:44.245Z,76910.16
2023-03-28T16:34:12.363Z,76928.50
2023-03-28T16:36:40.129Z,76942.78
2023-03-28T16:39:08.517Z,76932.56
2023-03-28T16:41:37.714Z,76946.84
2023-03-28T16:44:06.157Z,76979.47
2023-03-28T16:46:34.061Z,76981.53
2023-03-28T16:49:01.852Z,76999.88
2023-03-28T16:51:29.604Z,77003.94
2023-03-28T16:53:57.411Z,76975.41
2023-03-28T16:56:27.277Z,76981.53
2023-03-28T16:58:56.544Z,76975.41
2023-03-28T17:01:24.488Z,76989.69
2023-03-28T17:03:53.645Z,76987.63
2023-03-28T17:06:21.879Z,76999.88
2023-03-28T17:08:53.144Z,76987.63
2023-03-28T17:11:22.026Z,76995.78
2023-03-28T17:13:52.800Z,77028.41
2023-03-28T17:16:22.551Z,77034.53
2023-03-28T17:18:51.149Z,77020.25
2023-03-28T17:21:19.889Z,77046.78
2023-03-28T17:23:50.934Z,77065.13
2023-03-28T17:26:43.527Z,77063.09
2023-03-28T17:29:12.011Z,77101.84
2023-03-28T17:31:41.834Z,77116.13
2023-03-28T17:34:09.899Z,77140.59
2023-03-28T17:36:37.972Z,77163.03
2023-03-28T17:39:06.224Z,77191.56
2023-03-28T17:41:33.962Z,77191.56
2023-03-28T17:44:02.299Z,77209.94
2023-03-28T17:46:30.228Z,77216.03
2023-03-28T17:48:59.542Z,77238.47
2023-03-28T17:51:27.393Z,77248.69
2023-03-28T17:53:55.686Z,77260.91
2023-03-28T17:56:24.257Z,77269.06
2023-03-28T17:58:52.418Z,77277.22
2023-03-28T18:01:20.704Z,77285.38
2023-03-28T18:03:48.599Z,77293.53
2023-03-28T18:06:18.592Z,77297.63
2023-03-28T18:08:47.578Z,77301.72
2023-03-28T18:11:17.771Z,77318.03
2023-03-28T18:13:45.934Z,77326.19
2023-03-28T18:16:18.069Z,77334.34
2023-03-28T18:18:47.297Z,77338.41
2023-03-28T18:21:15.158Z,77346.56
2023-03-28T18:23:44.317Z,77344.53
2023-03-28T18:26:12.292Z,77354.72
2023-03-28T18:28:40.397Z,77362.88
2023-03-28T18:31:09.528Z,77366.97
2023-03-28T18:33:37.595Z,77379.22
2023-03-28T18:36:05.977Z,77387.38
2023-03-28T18:38:36.989Z,77401.66
2023-03-28T18:41:06.817Z,77420.00
2023-03-28T18:43:34.802Z,77424.09
2023-03-28T18:46:03.594Z,77430.19
2023-03-28T18:48:32.670Z,77428.16
2023-03-28T18:51:01.944Z,77432.25
2023-03-28T18:53:30.302Z,77399.59
2023-03-28T18:55:59.747Z,77395.53
2023-03-28T18:58:29.283Z,77371.06
2023-03-28T19:00:59.191Z,77366.97
2023-03-28T19:03:28.970Z,77354.72
2023-03-28T19:05:57.568Z,77366.97
2023-03-28T19:08:26.403Z,77371.06
2023-03-28T19:10:54.784Z,77387.38
2023-03-28T19:13:25.736Z,77395.53
2023-03-28T19:16:02.534Z,77395.53
2023-03-28T19:18:30.617Z,77403.69
2023-03-28T19:20:58.527Z,77403.69
2023-03-28T19:23:28.458Z,77415.91
2023-03-28T19:25:56.887Z,77428.16
2023-03-28T19:28:25.561Z,77407.75
2023-03-28T19:31:06.424Z,77407.75
2023-03-28T19:33:34.891Z,77409.81
2023-03-28T19:36:03.055Z,77409.81
2023-03-28T19:38:34.862Z,77426.13
2023-03-28T19:41:06.085Z,77444.47
2023-03-28T19:43:35.752Z,77468.94
2023-03-28T19:46:06.270Z,77485.28
2023-03-28T19:48:34.916Z,77501.59
2023-03-28T19:51:03.417Z,77509.75
2023-03-28T19:53:31.275Z,77521.97
2023-03-28T19:56:00.829Z,77521.97
2023-03-28T19:58:29.274Z,77542.38
2023-03-28T20:00:57.840Z,77558.69
2023-03-28T20:03:27.063Z,77579.09
2023-03-28T20:05:54.848Z,77585.22
2023-03-28T20:08:22.587Z,77597.44
2023-03-28T20:10:52.558Z,77597.44
2023-03-28T20:13:20.651Z,77601.53
2023-03-28T20:15:48.459Z,77605.59
2023-03-28T20:18:19.799Z,77615.81
2023-03-28T20:20:53.510Z,77632.13
2023-03-28T20:23:27.034Z,77638.25
2023-03-28T20:25:55.392Z,77646.41
2023-03-28T20:28:24.969Z,77660.69
2023-03-28T20:30:54.272Z,77652.53
2023-03-28T20:33:22.375Z,77660.69
2023-03-28T20:35:55.962Z,77668.84
2023-03-28T20:38:23.936Z,77695.34
2023-03-28T20:40:52.566Z,77713.72
2023-03-28T20:43:21.092Z,77723.91
2023-03-28T20:45:53.830Z,77734.09
2023-03-28T20:48:25.922Z,77730.03
2023-03-28T20:50:55.102Z,77734.09
2023-03-28T20:53:22.880Z,77728.00
2023-03-28T20:56:00.344Z,77732.06
2023-03-28T20:58:29.161Z,77738.19
2023-03-28T21:00:58.303Z,77748.38
2023-03-28T21:03:46.881Z,77742.28
2023-03-28T21:06:18.237Z,77750.44
2023-03-28T21:08:47.121Z,77766.75
2023-03-28T21:11:16.150Z,77758.59
2023-03-28T21:13:44.366Z,77758.59
2023-03-28T21:16:14.288Z,77746.34
2023-03-28T21:18:42.370Z,77746.34
2023-03-28T21:21:11.581Z,77746.34
2023-03-28T21:23:41.511Z,77742.28
2023-03-28T21:26:11.291Z,77746.34
2023-03-28T21:28:39.154Z,77762.66
2023-03-28T21:31:09.034Z,77768.78
2023-03-28T21:33:38.606Z,77778.97
2023-03-28T21:36:08.498Z,77774.91
2023-03-28T21:38:36.545Z,77766.75
2023-03-28T21:41:07.393Z,77760.63
2023-03-28T21:43:35.604Z,77762.66
2023-03-28T21:46:03.754Z,77766.75
2023-03-28T21:48:31.791Z,77778.97
2023-03-28T21:51:00.825Z,77787.16
2023-03-28T21:53:31.534Z,77795.31
2023-03-28T21:55:59.944Z,77791.22
2023-03-28T21:58:30.895Z,77783.06
2023-03-28T22:00:58.755Z,77776.94
2023-03-28T22:03:27.162Z,77770.81
2023-03-28T22:05:55.517Z,77774.91
2023-03-28T22:08:24.090Z,77774.91
2023-03-28T22:10:54.064Z,77774.91
2023-03-28T22:13:23.884Z,77778.97
2023-03-28T22:15:53.412Z,77776.94
2023-03-28T22:18:21.410Z,77770.81
2023-03-28T22:20:53.887Z,77766.75
2023-03-28T22:23:22.419Z,77766.75
2023-03-28T22:25:50.398Z,77762.66
2023-03-28T22:28:18.886Z,77762.66
2023-03-28T22:30:46.791Z,77762.66
2023-03-28T22:33:16.570Z,77770.81
2023-03-28T22:35:44.336Z,77766.75
2023-03-28T22:38:12.221Z,77770.81
2023-03-28T22:40:39.994Z,77774.91
2023-03-28T22:43:07.741Z,77768.78
2023-03-28T22:45:35.750Z,77766.75
2023-03-28T22:48:03.759Z,77770.81
2023-03-28T22:50:33.765Z,77768.78
2023-03-28T22:53:02.282Z,77776.94
2023-03-28T22:55:30.353Z,77789.19
2023-03-28T22:57:58.123Z,77803.47
2023-03-28T23:00:27.112Z,77823.84
2023-03-28T23:02:56.092Z,77819.78
2023-03-28T23:05:24.000Z,77815.69
2023-03-28T23:07:54.547Z,77819.78
2023-03-28T23:10:22.585Z,77815.69
2023-03-28T23:12:50.621Z,77813.66
2023-03-28T23:15:18.588Z,77827.94
2023-03-28T23:17:46.868Z,77823.84
2023-03-28T23:20:15.801Z,77827.94
2023-03-28T23:22:45.767Z,77825.91
2023-03-28T23:25:18.392Z,77815.69
2023-03-28T23:27:47.407Z,77813.66
2023-03-28T23:30:17.168Z,77813.66
2023-03-28T23:32:45.059Z,77823.84
2023-03-28T23:35:13.153Z,77823.84
2023-03-28T23:37:41.189Z,77821.81
2023-03-28T23:40:15.633Z,77815.69
2023-03-28T23:42:45.163Z,77807.53
2023-03-28T23:45:14.799Z,77825.91
2023-03-28T23:47:42.949Z,77827.94
2023-03-28T23:50:12.076Z,77827.94
2023-03-28T23:52:40.061Z,77827.94
2023-03-28T23:55:08.898Z,77821.81
2023-03-28T23:57:38.253Z,77823.84
